LPA502 URML-URWA
Flight info
| Callsign | LPA502 |
|---|---|
| Flight time | 1h 28m |
| Altitude | 2000 |
| Route | EMTEZ/K0393F070 DCT AMKOL B945 UP UP5K |
| Aircraft | AEST/L-SDFGRY/S |
Departure
| Time | 2026-04-29 14:28 |
|---|---|
| Airport | Makhachkala Uytash International Airport (URML) |
Arrival
| Time | 2026-04-29 15:56 |
|---|---|
| Airport | Astrakhan Narimanovo Boris M. Kustodiev International Airport (URWA) |
| Time | Latitude | Longitude | Altitude | Speed | Heading |
|---|---|---|---|---|---|
| 2026-04-29 13:56 | 42.81778 | 47.65860 | 16 ft | 0 kts | 39° |
| 2026-04-29 14:16 | 42.81771 | 47.65852 | 16 ft | 3 kts | 38° |
| 2026-04-29 14:17 | 42.81755 | 47.65835 | 16 ft | 3 kts | 36° |
| 2026-04-29 14:17 | 42.81739 | 47.65819 | 16 ft | 3 kts | 32° |
| 2026-04-29 14:17 | 42.81721 | 47.65805 | 16 ft | 3 kts | 22° |
| 2026-04-29 14:17 | 42.81708 | 47.65798 | 16 ft | 1 kts | 15° |
| 2026-04-29 14:18 | 42.81704 | 47.65797 | 16 ft | 0 kts | 15° |
| 2026-04-29 14:22 | 42.81706 | 47.65798 | 16 ft | 3 kts | 9° |
| 2026-04-29 14:22 | 42.81718 | 47.65788 | 16 ft | 0 kts | 288° |
| 2026-04-29 14:22 | 42.81725 | 47.65761 | 16 ft | 0 kts | 301° |
| 2026-04-29 14:22 | 42.81743 | 47.65730 | 16 ft | 4 kts | 308° |
| 2026-04-29 14:23 | 42.81761 | 47.65696 | 16 ft | 2 kts | 303° |
| 2026-04-29 14:23 | 42.81768 | 47.65682 | 16 ft | 0 kts | 303° |
| 2026-04-29 14:23 | 42.81773 | 47.65671 | 16 ft | 3 kts | 305° |
| 2026-04-29 14:23 | 42.81789 | 47.65639 | 16 ft | 5 kts | 292° |
| 2026-04-29 14:24 | 42.81784 | 47.65593 | 16 ft | 6 kts | 232° |
| 2026-04-29 14:24 | 42.81756 | 47.65541 | 16 ft | 8 kts | 237° |
| 2026-04-29 14:24 | 42.81738 | 47.65502 | 16 ft | 4 kts | 238° |
| 2026-04-29 14:24 | 42.81716 | 47.65456 | 16 ft | 7 kts | 237° |
| 2026-04-29 14:25 | 42.81687 | 47.65394 | 16 ft | 9 kts | 238° |
| 2026-04-29 14:25 | 42.81657 | 47.65328 | 15 ft | 8 kts | 237° |
| 2026-04-29 14:25 | 42.81604 | 47.65310 | 15 ft | 10 kts | 151° |
| 2026-04-29 14:25 | 42.81545 | 47.65360 | 15 ft | 10 kts | 148° |
| 2026-04-29 14:26 | 42.81487 | 47.65409 | 16 ft | 10 kts | 148° |
| 2026-04-29 14:26 | 42.81431 | 47.65457 | 17 ft | 10 kts | 149° |
| 2026-04-29 14:26 | 42.81365 | 47.65482 | 16 ft | 11 kts | 173° |
| 2026-04-29 14:26 | 42.81337 | 47.65496 | 16 ft | 6 kts | 108° |
| 2026-04-29 14:27 | 42.81367 | 47.65508 | 16 ft | 6 kts | 330° |
| 2026-04-29 14:27 | 42.81613 | 47.65300 | 15 ft | 81 kts | 328° |
| 2026-04-29 14:27 | 42.82206 | 47.64799 | 79 ft | 109 kts | 329° |
| 2026-04-29 14:28 | 42.83453 | 47.63294 | 586 ft | 131 kts | 308° |
| 2026-04-29 14:28 | 42.84115 | 47.62458 | 1001 ft | 126 kts | 334° |
| 2026-04-29 14:28 | 42.84883 | 47.62209 | 1308 ft | 104 kts | 4° |
| 2026-04-29 14:28 | 42.85581 | 47.62249 | 1522 ft | 100 kts | 357° |
| 2026-04-29 14:29 | 42.86261 | 47.62096 | 1795 ft | 99 kts | 343° |
| 2026-04-29 14:29 | 42.86901 | 47.61730 | 2035 ft | 100 kts | 337° |
| 2026-04-29 14:29 | 42.87572 | 47.61371 | 2159 ft | 110 kts | 340° |
| 2026-04-29 14:29 | 42.88328 | 47.60927 | 2139 ft | 127 kts | 336° |
| 2026-04-29 14:30 | 42.89060 | 47.60159 | 2071 ft | 143 kts | 302° |
| 2026-04-29 14:30 | 42.89337 | 47.58828 | 2033 ft | 153 kts | 280° |
| 2026-04-29 14:30 | 42.89576 | 47.57380 | 2029 ft | 156 kts | 291° |
| 2026-04-29 14:30 | 42.90075 | 47.56083 | 2033 ft | 155 kts | 305° |
| 2026-04-29 14:31 | 42.90729 | 47.54985 | 2009 ft | 144 kts | 316° |
| 2026-04-29 14:31 | 42.91456 | 47.54136 | 2015 ft | 132 kts | 325° |
| 2026-04-29 14:31 | 42.92183 | 47.53469 | 2018 ft | 121 kts | 328° |
| 2026-04-29 14:31 | 42.92926 | 47.52849 | 2054 ft | 130 kts | 330° |
| 2026-04-29 14:32 | 42.93738 | 47.52205 | 2050 ft | 140 kts | 331° |
| 2026-04-29 14:32 | 42.94600 | 47.51524 | 2038 ft | 147 kts | 330° |
| 2026-04-29 14:32 | 42.95499 | 47.50795 | 2028 ft | 153 kts | 329° |
| 2026-04-29 14:32 | 42.96413 | 47.50025 | 2039 ft | 156 kts | 328° |
| 2026-04-29 14:33 | 42.97335 | 47.49206 | 2033 ft | 160 kts | 327° |
| 2026-04-29 14:33 | 42.98265 | 47.48346 | 2026 ft | 163 kts | 326° |
| 2026-04-29 14:33 | 42.99190 | 47.47444 | 2026 ft | 164 kts | 325° |
| 2026-04-29 14:33 | 43.00106 | 47.46510 | 2036 ft | 164 kts | 323° |
| 2026-04-29 14:34 | 43.01019 | 47.45545 | 2025 ft | 167 kts | 323° |
| 2026-04-29 14:34 | 43.01887 | 47.44606 | 2217 ft | 157 kts | 322° |
| 2026-04-29 14:34 | 43.02759 | 47.43651 | 2111 ft | 165 kts | 322° |
| 2026-04-29 14:34 | 43.03688 | 47.42638 | 1943 ft | 173 kts | 323° |
| 2026-04-29 14:35 | 43.04621 | 47.41643 | 1988 ft | 168 kts | 323° |
| 2026-04-29 14:35 | 43.05545 | 47.40681 | 2005 ft | 166 kts | 324° |
| 2026-04-29 14:35 | 43.06474 | 47.39737 | 2010 ft | 167 kts | 324° |
| 2026-04-29 14:35 | 43.07405 | 47.38796 | 2012 ft | 166 kts | 324° |
| 2026-04-29 14:36 | 43.08334 | 47.37855 | 2013 ft | 166 kts | 324° |
| 2026-04-29 14:36 | 43.09270 | 47.36893 | 2009 ft | 172 kts | 324° |
| 2026-04-29 14:36 | 43.10210 | 47.35911 | 2011 ft | 174 kts | 322° |
| 2026-04-29 14:36 | 43.11067 | 47.34739 | 2023 ft | 174 kts | 319° |
| 2026-04-29 14:37 | 43.12067 | 47.33851 | 2021 ft | 171 kts | 337° |
| 2026-04-29 14:37 | 43.13120 | 47.33106 | 2011 ft | 170 kts | 334° |
| 2026-04-29 14:37 | 43.14216 | 47.32566 | 1998 ft | 167 kts | 359° |
| 2026-04-29 14:37 | 43.15303 | 47.32960 | 2020 ft | 163 kts | 36° |
| 2026-04-29 14:38 | 43.16050 | 47.34101 | 2007 ft | 161 kts | 53° |
| 2026-04-29 14:38 | 43.16965 | 47.34915 | 1999 ft | 159 kts | 13° |
| 2026-04-29 14:38 | 43.18041 | 47.35163 | 2013 ft | 157 kts | 27° |
| 2026-04-29 14:38 | 43.18828 | 47.36155 | 2024 ft | 154 kts | 50° |
| 2026-04-29 14:39 | 43.19754 | 47.36920 | 1703 ft | 171 kts | 17° |
| 2026-04-29 14:39 | 43.20818 | 47.37443 | 1842 ft | 159 kts | 33° |
| 2026-04-29 14:39 | 43.21791 | 47.38126 | 1819 ft | 157 kts | 18° |
| 2026-04-29 14:39 | 43.22876 | 47.38297 | 1803 ft | 158 kts | 4° |
| 2026-04-29 14:40 | 43.23929 | 47.38663 | 1805 ft | 156 kts | 28° |
| 2026-04-29 14:40 | 43.24866 | 47.39357 | 1823 ft | 152 kts | 26° |
| 2026-04-29 14:40 | 43.25849 | 47.39862 | 1811 ft | 151 kts | 12° |
| 2026-04-29 14:40 | 43.26883 | 47.40055 | 1849 ft | 148 kts | 7° |
| 2026-04-29 14:41 | 43.27905 | 47.40210 | 1897 ft | 147 kts | 8° |
| 2026-04-29 14:41 | 43.28913 | 47.40451 | 1925 ft | 148 kts | 11° |
| 2026-04-29 14:41 | 43.29918 | 47.40750 | 1952 ft | 148 kts | 14° |
| 2026-04-29 14:41 | 43.30913 | 47.41065 | 1968 ft | 146 kts | 13° |
| 2026-04-29 14:42 | 43.31906 | 47.41349 | 1987 ft | 146 kts | 12° |
| 2026-04-29 14:42 | 43.32898 | 47.41616 | 1994 ft | 145 kts | 12° |
| 2026-04-29 14:42 | 43.33887 | 47.41883 | 1999 ft | 146 kts | 11° |
| 2026-04-29 14:42 | 43.34911 | 47.42154 | 2014 ft | 154 kts | 11° |
| 2026-04-29 14:43 | 43.36022 | 47.42443 | 2004 ft | 171 kts | 12° |
| 2026-04-29 14:43 | 43.37225 | 47.42761 | 1991 ft | 181 kts | 12° |
| 2026-04-29 14:43 | 43.38480 | 47.43082 | 1982 ft | 185 kts | 13° |
| 2026-04-29 14:43 | 43.39743 | 47.43434 | 1998 ft | 185 kts | 14° |
| 2026-04-29 14:44 | 43.41010 | 47.43800 | 1989 ft | 188 kts | 14° |
| 2026-04-29 14:44 | 43.42268 | 47.44192 | 1994 ft | 188 kts | 15° |
| 2026-04-29 14:44 | 43.43548 | 47.44602 | 1997 ft | 190 kts | 15° |
| 2026-04-29 14:44 | 43.44832 | 47.45014 | 1991 ft | 190 kts | 15° |
| 2026-04-29 14:45 | 43.46121 | 47.45414 | 1991 ft | 189 kts | 14° |
| 2026-04-29 14:45 | 43.47401 | 47.45804 | 1994 ft | 186 kts | 14° |
| 2026-04-29 14:45 | 43.48662 | 47.46186 | 1994 ft | 185 kts | 13° |
| 2026-04-29 14:45 | 43.49929 | 47.46549 | 1990 ft | 186 kts | 13° |
| 2026-04-29 14:46 | 43.51195 | 47.46912 | 1993 ft | 186 kts | 13° |
| 2026-04-29 14:46 | 43.52464 | 47.47272 | 1994 ft | 186 kts | 13° |
| 2026-04-29 14:46 | 43.53729 | 47.47625 | 1993 ft | 186 kts | 13° |
| 2026-04-29 14:46 | 43.54994 | 47.47990 | 1992 ft | 185 kts | 13° |
| 2026-04-29 14:47 | 43.56253 | 47.48358 | 1991 ft | 185 kts | 13° |
| 2026-04-29 14:47 | 43.57514 | 47.48721 | 1994 ft | 185 kts | 13° |
| 2026-04-29 14:47 | 43.58774 | 47.49086 | 1998 ft | 186 kts | 13° |
| 2026-04-29 14:47 | 43.59629 | 47.49344 | 1994 ft | 186 kts | 13° |
| 2026-04-29 14:48 | 43.61307 | 47.49844 | 1995 ft | 186 kts | 13° |
| 2026-04-29 14:48 | 43.62575 | 47.50233 | 1992 ft | 187 kts | 11° |
| 2026-04-29 14:48 | 43.63864 | 47.50394 | 1986 ft | 185 kts | 2° |
| 2026-04-29 14:48 | 43.65129 | 47.50246 | 1982 ft | 179 kts | 353° |
| 2026-04-29 14:49 | 43.66319 | 47.49856 | 1988 ft | 173 kts | 341° |
| 2026-04-29 14:49 | 43.67356 | 47.49048 | 1995 ft | 170 kts | 330° |
| 2026-04-29 14:49 | 43.68388 | 47.48268 | 1999 ft | 168 kts | 339° |
| 2026-04-29 14:49 | 43.69486 | 47.47744 | 1991 ft | 166 kts | 349° |
| 2026-04-29 14:50 | 43.70614 | 47.47498 | 1990 ft | 163 kts | 358° |
| 2026-04-29 14:50 | 43.71739 | 47.47460 | 1993 ft | 161 kts | 4° |
| 2026-04-29 14:50 | 43.72857 | 47.47513 | 1995 ft | 160 kts | 4° |
| 2026-04-29 14:50 | 43.73964 | 47.47535 | 1996 ft | 159 kts | 2° |
| 2026-04-29 14:51 | 43.75073 | 47.47510 | 1992 ft | 160 kts | 1° |
| 2026-04-29 14:51 | 43.76194 | 47.47438 | 2005 ft | 162 kts | 359° |
| 2026-04-29 14:51 | 43.77327 | 47.47314 | 2002 ft | 164 kts | 357° |
| 2026-04-29 14:51 | 43.78470 | 47.47134 | 1990 ft | 167 kts | 355° |
| 2026-04-29 14:52 | 43.79623 | 47.46908 | 1994 ft | 168 kts | 354° |
| 2026-04-29 14:52 | 43.80784 | 47.46645 | 1994 ft | 170 kts | 353° |
| 2026-04-29 14:52 | 43.81951 | 47.46366 | 1991 ft | 171 kts | 353° |
| 2026-04-29 14:52 | 43.83123 | 47.46097 | 1997 ft | 171 kts | 354° |
| 2026-04-29 14:53 | 43.84301 | 47.45843 | 1995 ft | 172 kts | 354° |
| 2026-04-29 14:53 | 43.85475 | 47.45610 | 1996 ft | 174 kts | 355° |
| 2026-04-29 14:53 | 43.86682 | 47.45391 | 1989 ft | 175 kts | 355° |
| 2026-04-29 14:53 | 43.87893 | 47.45179 | 1986 ft | 176 kts | 355° |
| 2026-04-29 14:54 | 43.89107 | 47.44964 | 1992 ft | 175 kts | 355° |
| 2026-04-29 14:54 | 43.90311 | 47.44747 | 1993 ft | 174 kts | 355° |
| 2026-04-29 14:54 | 43.91513 | 47.44535 | 1991 ft | 174 kts | 355° |
| 2026-04-29 14:54 | 43.92705 | 47.44322 | 1986 ft | 172 kts | 355° |
| 2026-04-29 14:55 | 43.93883 | 47.44105 | 1988 ft | 170 kts | 355° |
| 2026-04-29 14:55 | 43.95061 | 47.43884 | 1993 ft | 171 kts | 355° |
| 2026-04-29 14:55 | 43.96237 | 47.43667 | 1994 ft | 170 kts | 355° |
| 2026-04-29 14:55 | 43.97411 | 47.43458 | 1997 ft | 170 kts | 355° |
| 2026-04-29 14:56 | 43.98588 | 47.43246 | 1995 ft | 171 kts | 355° |
| 2026-04-29 14:56 | 43.99771 | 47.43027 | 1995 ft | 172 kts | 355° |
| 2026-04-29 14:56 | 44.00954 | 47.42800 | 1990 ft | 172 kts | 355° |
| 2026-04-29 14:56 | 44.02134 | 47.42577 | 1991 ft | 171 kts | 355° |
| 2026-04-29 14:57 | 44.03303 | 47.42356 | 1994 ft | 168 kts | 355° |
| 2026-04-29 14:57 | 44.04462 | 47.42136 | 1994 ft | 168 kts | 355° |
| 2026-04-29 14:57 | 44.05619 | 47.41920 | 1994 ft | 167 kts | 355° |
| 2026-04-29 14:57 | 44.06773 | 47.41705 | 1993 ft | 167 kts | 355° |
| 2026-04-29 14:58 | 44.07929 | 47.41491 | 1993 ft | 168 kts | 355° |
| 2026-04-29 14:58 | 44.09089 | 47.41276 | 1989 ft | 169 kts | 355° |
| 2026-04-29 14:58 | 44.10247 | 47.41063 | 1992 ft | 170 kts | 355° |
| 2026-04-29 14:58 | 44.11435 | 47.40848 | 1998 ft | 170 kts | 355° |
| 2026-04-29 14:59 | 44.12593 | 47.40636 | 1992 ft | 170 kts | 355° |
| 2026-04-29 14:59 | 44.13781 | 47.40418 | 1992 ft | 169 kts | 355° |
| 2026-04-29 14:59 | 44.14928 | 47.40206 | 1993 ft | 168 kts | 355° |
| 2026-04-29 14:59 | 44.16087 | 47.39989 | 1993 ft | 168 kts | 355° |
| 2026-04-29 15:00 | 44.17246 | 47.39772 | 1993 ft | 168 kts | 355° |
| 2026-04-29 15:00 | 44.18403 | 47.39556 | 1997 ft | 168 kts | 355° |
| 2026-04-29 15:00 | 44.19563 | 47.39337 | 1999 ft | 169 kts | 355° |
| 2026-04-29 15:00 | 44.20731 | 47.39115 | 1998 ft | 170 kts | 355° |
| 2026-04-29 15:01 | 44.21906 | 47.38891 | 1996 ft | 170 kts | 355° |
| 2026-04-29 15:01 | 44.23078 | 47.38670 | 1997 ft | 170 kts | 355° |
| 2026-04-29 15:01 | 44.24248 | 47.38450 | 1992 ft | 170 kts | 355° |
| 2026-04-29 15:01 | 44.25422 | 47.38228 | 1989 ft | 170 kts | 355° |
| 2026-04-29 15:02 | 44.26589 | 47.38009 | 1992 ft | 169 kts | 355° |
| 2026-04-29 15:02 | 44.27759 | 47.37799 | 1997 ft | 170 kts | 355° |
| 2026-04-29 15:02 | 44.28927 | 47.37588 | 1995 ft | 169 kts | 355° |
| 2026-04-29 15:02 | 44.30092 | 47.37373 | 1995 ft | 169 kts | 355° |
| 2026-04-29 15:03 | 44.31263 | 47.37160 | 1995 ft | 170 kts | 355° |
| 2026-04-29 15:03 | 44.32434 | 47.36942 | 1985 ft | 170 kts | 355° |
| 2026-04-29 15:03 | 44.33615 | 47.36720 | 1987 ft | 171 kts | 355° |
| 2026-04-29 15:03 | 44.34795 | 47.36499 | 1992 ft | 171 kts | 355° |
| 2026-04-29 15:04 | 44.35972 | 47.36277 | 1995 ft | 170 kts | 355° |
| 2026-04-29 15:04 | 44.37150 | 47.36055 | 1994 ft | 171 kts | 354° |
| 2026-04-29 15:04 | 44.38331 | 47.35836 | 1994 ft | 172 kts | 355° |
| 2026-04-29 15:04 | 44.39518 | 47.35612 | 1994 ft | 172 kts | 354° |
| 2026-04-29 15:05 | 44.40704 | 47.35385 | 1994 ft | 172 kts | 354° |
| 2026-04-29 15:05 | 44.41491 | 47.35236 | 1997 ft | 173 kts | 354° |
| 2026-04-29 15:05 | 44.43085 | 47.34929 | 1996 ft | 173 kts | 354° |
| 2026-04-29 15:05 | 44.44274 | 47.34698 | 1996 ft | 173 kts | 354° |
| 2026-04-29 15:06 | 44.45469 | 47.34471 | 1999 ft | 173 kts | 354° |
| 2026-04-29 15:06 | 44.46668 | 47.34243 | 1998 ft | 175 kts | 355° |
| 2026-04-29 15:06 | 44.47874 | 47.34025 | 1993 ft | 175 kts | 355° |
| 2026-04-29 15:06 | 44.49079 | 47.33810 | 1990 ft | 174 kts | 354° |
| 2026-04-29 15:07 | 44.49873 | 47.33661 | 1989 ft | 173 kts | 354° |
| 2026-04-29 15:07 | 44.51445 | 47.33355 | 1992 ft | 172 kts | 354° |
| 2026-04-29 15:07 | 44.52245 | 47.33197 | 1993 ft | 172 kts | 354° |
| 2026-04-29 15:07 | 44.53432 | 47.32962 | 1991 ft | 172 kts | 355° |
| 2026-04-29 15:08 | 44.54620 | 47.32738 | 1990 ft | 172 kts | 355° |
| 2026-04-29 15:08 | 44.55806 | 47.32524 | 1989 ft | 172 kts | 355° |
| 2026-04-29 15:08 | 44.57003 | 47.32296 | 1989 ft | 174 kts | 355° |
| 2026-04-29 15:08 | 44.58206 | 47.32066 | 1992 ft | 175 kts | 355° |
| 2026-04-29 15:09 | 44.59414 | 47.31838 | 1989 ft | 175 kts | 355° |
| 2026-04-29 15:09 | 44.60623 | 47.31616 | 1989 ft | 175 kts | 355° |
| 2026-04-29 15:09 | 44.61832 | 47.31394 | 1990 ft | 175 kts | 355° |
| 2026-04-29 15:09 | 44.63032 | 47.31169 | 1991 ft | 174 kts | 355° |
| 2026-04-29 15:10 | 44.64231 | 47.30940 | 1992 ft | 174 kts | 355° |
| 2026-04-29 15:10 | 44.65432 | 47.30712 | 1991 ft | 174 kts | 355° |
| 2026-04-29 15:10 | 44.66632 | 47.30485 | 1991 ft | 174 kts | 355° |
| 2026-04-29 15:10 | 44.67830 | 47.30258 | 1992 ft | 174 kts | 355° |
| 2026-04-29 15:11 | 44.69030 | 47.30030 | 1991 ft | 174 kts | 355° |
| 2026-04-29 15:11 | 44.70232 | 47.29799 | 1989 ft | 174 kts | 355° |
| 2026-04-29 15:11 | 44.71435 | 47.29570 | 1986 ft | 174 kts | 355° |
| 2026-04-29 15:11 | 44.72635 | 47.29341 | 1989 ft | 174 kts | 355° |
| 2026-04-29 15:12 | 44.73834 | 47.29118 | 1991 ft | 174 kts | 355° |
| 2026-04-29 15:12 | 44.75032 | 47.28895 | 1990 ft | 174 kts | 355° |
| 2026-04-29 15:12 | 44.76229 | 47.28665 | 1990 ft | 173 kts | 354° |
| 2026-04-29 15:12 | 44.77423 | 47.28432 | 1986 ft | 173 kts | 354° |
| 2026-04-29 15:13 | 44.78612 | 47.28205 | 1995 ft | 172 kts | 355° |
| 2026-04-29 15:13 | 44.79799 | 47.27973 | 1982 ft | 173 kts | 355° |
| 2026-04-29 15:13 | 44.80970 | 47.27738 | 1991 ft | 172 kts | 355° |
| 2026-04-29 15:13 | 44.82179 | 47.27507 | 1989 ft | 173 kts | 355° |
| 2026-04-29 15:14 | 44.83371 | 47.27277 | 1991 ft | 173 kts | 355° |
| 2026-04-29 15:14 | 44.84565 | 47.27054 | 1990 ft | 172 kts | 355° |
| 2026-04-29 15:14 | 44.85749 | 47.26833 | 1991 ft | 171 kts | 355° |
| 2026-04-29 15:14 | 44.86915 | 47.26613 | 1992 ft | 172 kts | 355° |
| 2026-04-29 15:15 | 44.88101 | 47.26393 | 1988 ft | 172 kts | 355° |
| 2026-04-29 15:15 | 44.89287 | 47.26172 | 1988 ft | 172 kts | 355° |
| 2026-04-29 15:15 | 44.90480 | 47.25950 | 1992 ft | 173 kts | 355° |
| 2026-04-29 15:15 | 44.91675 | 47.25721 | 1989 ft | 173 kts | 355° |
| 2026-04-29 15:16 | 44.92867 | 47.25487 | 1993 ft | 173 kts | 355° |
| 2026-04-29 15:16 | 44.94060 | 47.25251 | 1990 ft | 173 kts | 355° |
| 2026-04-29 15:16 | 44.95251 | 47.25021 | 1993 ft | 173 kts | 355° |
| 2026-04-29 15:16 | 44.96445 | 47.24804 | 1990 ft | 173 kts | 355° |
| 2026-04-29 15:17 | 44.97637 | 47.24584 | 1987 ft | 173 kts | 355° |
| 2026-04-29 15:17 | 44.98832 | 47.24353 | 1989 ft | 173 kts | 355° |
| 2026-04-29 15:17 | 45.00024 | 47.24119 | 1990 ft | 173 kts | 355° |
| 2026-04-29 15:17 | 45.01219 | 47.23889 | 1994 ft | 173 kts | 355° |
| 2026-04-29 15:18 | 45.02417 | 47.23658 | 1995 ft | 174 kts | 355° |
| 2026-04-29 15:18 | 45.03617 | 47.23429 | 1988 ft | 174 kts | 355° |
| 2026-04-29 15:18 | 45.04827 | 47.23197 | 1984 ft | 176 kts | 354° |
| 2026-04-29 15:18 | 45.06033 | 47.22976 | 2002 ft | 174 kts | 354° |
| 2026-04-29 15:19 | 45.07247 | 47.22735 | 2002 ft | 177 kts | 354° |
| 2026-04-29 15:19 | 45.08470 | 47.22500 | 1986 ft | 177 kts | 354° |
| 2026-04-29 15:19 | 45.09682 | 47.22268 | 1991 ft | 175 kts | 354° |
| 2026-04-29 15:19 | 45.10895 | 47.22033 | 1988 ft | 176 kts | 354° |
| 2026-04-29 15:20 | 45.12089 | 47.21799 | 1989 ft | 176 kts | 354° |
| 2026-04-29 15:20 | 45.13303 | 47.21562 | 1992 ft | 177 kts | 354° |
| 2026-04-29 15:20 | 45.14522 | 47.21322 | 1991 ft | 177 kts | 354° |
| 2026-04-29 15:20 | 45.15743 | 47.21083 | 1995 ft | 176 kts | 354° |
| 2026-04-29 15:21 | 45.16955 | 47.20849 | 1991 ft | 176 kts | 354° |
| 2026-04-29 15:21 | 45.18174 | 47.20615 | 1997 ft | 177 kts | 354° |
| 2026-04-29 15:21 | 45.19391 | 47.20382 | 1989 ft | 176 kts | 354° |
| 2026-04-29 15:21 | 45.20605 | 47.20151 | 1993 ft | 177 kts | 354° |
| 2026-04-29 15:22 | 45.21827 | 47.19912 | 1985 ft | 176 kts | 354° |
| 2026-04-29 15:22 | 45.23039 | 47.19673 | 1991 ft | 176 kts | 354° |
| 2026-04-29 15:22 | 45.24253 | 47.19425 | 1991 ft | 177 kts | 354° |
| 2026-04-29 15:22 | 45.25468 | 47.19182 | 1989 ft | 175 kts | 355° |
| 2026-04-29 15:23 | 45.26679 | 47.18969 | 1989 ft | 175 kts | 355° |
| 2026-04-29 15:23 | 45.27890 | 47.18744 | 1992 ft | 175 kts | 355° |
| 2026-04-29 15:23 | 45.29092 | 47.18526 | 1997 ft | 174 kts | 354° |
| 2026-04-29 15:23 | 45.30298 | 47.18299 | 1994 ft | 176 kts | 354° |
| 2026-04-29 15:24 | 45.31513 | 47.18052 | 1992 ft | 177 kts | 354° |
| 2026-04-29 15:24 | 45.32724 | 47.17813 | 1991 ft | 175 kts | 354° |
| 2026-04-29 15:24 | 45.33935 | 47.17568 | 1991 ft | 177 kts | 354° |
| 2026-04-29 15:24 | 45.35155 | 47.17318 | 1992 ft | 177 kts | 354° |
| 2026-04-29 15:25 | 45.36374 | 47.17075 | 1994 ft | 177 kts | 354° |
| 2026-04-29 15:25 | 45.37597 | 47.16851 | 1998 ft | 178 kts | 354° |
| 2026-04-29 15:25 | 45.38817 | 47.16621 | 1989 ft | 176 kts | 354° |
| 2026-04-29 15:25 | 45.40030 | 47.16392 | 1995 ft | 176 kts | 354° |
| 2026-04-29 15:26 | 45.41230 | 47.16161 | 2000 ft | 177 kts | 354° |
| 2026-04-29 15:26 | 45.42458 | 47.15917 | 1988 ft | 178 kts | 354° |
| 2026-04-29 15:26 | 45.43678 | 47.15673 | 1995 ft | 177 kts | 354° |
| 2026-04-29 15:26 | 45.44897 | 47.15429 | 1989 ft | 177 kts | 354° |
| 2026-04-29 15:27 | 45.46117 | 47.15185 | 1994 ft | 177 kts | 354° |
| 2026-04-29 15:27 | 45.47337 | 47.14947 | 1993 ft | 177 kts | 354° |
| 2026-04-29 15:27 | 45.48557 | 47.14715 | 1997 ft | 177 kts | 354° |
| 2026-04-29 15:27 | 45.49786 | 47.14487 | 1983 ft | 179 kts | 354° |
| 2026-04-29 15:28 | 45.51009 | 47.14259 | 1988 ft | 176 kts | 354° |
| 2026-04-29 15:28 | 45.51819 | 47.14111 | 1991 ft | 180 kts | 354° |
| 2026-04-29 15:28 | 45.53492 | 47.13819 | 1987 ft | 180 kts | 353° |
| 2026-04-29 15:28 | 45.54743 | 47.13591 | 1988 ft | 183 kts | 352° |
| 2026-04-29 15:29 | 45.56008 | 47.13341 | 1984 ft | 183 kts | 351° |
| 2026-04-29 15:29 | 45.58487 | 47.12815 | 1988 ft | 179 kts | 351° |
| 2026-04-29 15:30 | 45.60925 | 47.12284 | 1994 ft | 177 kts | 352° |
| 2026-04-29 15:30 | 45.62143 | 47.12039 | 1991 ft | 177 kts | 352° |
| 2026-04-29 15:30 | 45.63353 | 47.11804 | 1995 ft | 177 kts | 352° |
| 2026-04-29 15:30 | 45.64576 | 47.11569 | 1989 ft | 179 kts | 352° |
| 2026-04-29 15:31 | 45.65810 | 47.11334 | 1989 ft | 179 kts | 352° |
| 2026-04-29 15:31 | 45.67042 | 47.11093 | 1985 ft | 179 kts | 352° |
| 2026-04-29 15:31 | 45.68265 | 47.10859 | 1992 ft | 177 kts | 352° |
| 2026-04-29 15:31 | 45.69496 | 47.10620 | 1987 ft | 178 kts | 352° |
| 2026-04-29 15:32 | 45.70720 | 47.10380 | 1983 ft | 177 kts | 352° |
| 2026-04-29 15:32 | 45.71935 | 47.10137 | 1995 ft | 176 kts | 352° |
| 2026-04-29 15:32 | 45.73155 | 47.09892 | 1992 ft | 178 kts | 352° |
| 2026-04-29 15:32 | 45.74382 | 47.09645 | 1989 ft | 178 kts | 352° |
| 2026-04-29 15:33 | 45.75606 | 47.09404 | 1996 ft | 178 kts | 352° |
| 2026-04-29 15:33 | 45.76818 | 47.09141 | 1992 ft | 174 kts | 353° |
| 2026-04-29 15:33 | 45.78011 | 47.08874 | 1992 ft | 174 kts | 354° |
| 2026-04-29 15:33 | 45.79213 | 47.08634 | 1992 ft | 175 kts | 354° |
| 2026-04-29 15:34 | 45.80419 | 47.08400 | 1984 ft | 175 kts | 355° |
| 2026-04-29 15:34 | 45.81622 | 47.08186 | 1990 ft | 174 kts | 355° |
| 2026-04-29 15:34 | 45.82828 | 47.07987 | 1986 ft | 175 kts | 355° |
| 2026-04-29 15:34 | 45.84031 | 47.07769 | 1993 ft | 174 kts | 354° |
| 2026-04-29 15:35 | 45.85234 | 47.07545 | 1995 ft | 174 kts | 354° |
| 2026-04-29 15:35 | 45.86433 | 47.07302 | 1994 ft | 174 kts | 354° |
| 2026-04-29 15:35 | 45.87630 | 47.07044 | 1992 ft | 174 kts | 354° |
| 2026-04-29 15:35 | 45.88833 | 47.06798 | 1994 ft | 175 kts | 354° |
| 2026-04-29 15:36 | 45.90036 | 47.06557 | 1991 ft | 174 kts | 354° |
| 2026-04-29 15:36 | 45.91234 | 47.06319 | 1989 ft | 174 kts | 354° |
| 2026-04-29 15:36 | 45.92395 | 47.05865 | 1994 ft | 173 kts | 347° |
| 2026-04-29 15:36 | 45.93585 | 47.05763 | 1993 ft | 172 kts | 9° |
| 2026-04-29 15:37 | 45.94673 | 47.06395 | 1996 ft | 171 kts | 41° |
| 2026-04-29 15:37 | 45.95301 | 47.07802 | 1988 ft | 169 kts | 76° |
| 2026-04-29 15:37 | 45.95379 | 47.09487 | 1979 ft | 170 kts | 88° |
| 2026-04-29 15:37 | 45.95553 | 47.11149 | 1986 ft | 169 kts | 71° |
| 2026-04-29 15:38 | 45.96127 | 47.12609 | 1995 ft | 168 kts | 50° |
| 2026-04-29 15:38 | 45.97014 | 47.13700 | 1995 ft | 168 kts | 35° |
| 2026-04-29 15:38 | 45.97921 | 47.14716 | 2000 ft | 168 kts | 43° |
| 2026-04-29 15:38 | 45.98746 | 47.15947 | 1999 ft | 170 kts | 50° |
| 2026-04-29 15:39 | 45.99466 | 47.17269 | 1994 ft | 170 kts | 54° |
| 2026-04-29 15:39 | 46.00158 | 47.18645 | 1993 ft | 169 kts | 54° |
| 2026-04-29 15:39 | 46.00863 | 47.19999 | 1995 ft | 169 kts | 52° |
| 2026-04-29 15:39 | 46.01596 | 47.21317 | 1991 ft | 169 kts | 51° |
| 2026-04-29 15:40 | 46.02352 | 47.22615 | 1985 ft | 169 kts | 50° |
| 2026-04-29 15:40 | 46.03114 | 47.23902 | 1997 ft | 170 kts | 50° |
| 2026-04-29 15:40 | 46.03879 | 47.25194 | 1995 ft | 169 kts | 50° |
| 2026-04-29 15:40 | 46.04644 | 47.26493 | 1994 ft | 170 kts | 51° |
| 2026-04-29 15:41 | 46.05404 | 47.27797 | 1996 ft | 171 kts | 51° |
| 2026-04-29 15:41 | 46.06165 | 47.29113 | 1990 ft | 171 kts | 51° |
| 2026-04-29 15:41 | 46.06922 | 47.30436 | 1990 ft | 171 kts | 51° |
| 2026-04-29 15:41 | 46.07676 | 47.31744 | 1992 ft | 169 kts | 50° |
| 2026-04-29 15:42 | 46.08430 | 47.33043 | 1998 ft | 169 kts | 50° |
| 2026-04-29 15:42 | 46.09184 | 47.34339 | 1997 ft | 169 kts | 50° |
| 2026-04-29 15:42 | 46.09936 | 47.35636 | 1999 ft | 169 kts | 50° |
| 2026-04-29 15:42 | 46.10692 | 47.36938 | 1998 ft | 170 kts | 50° |
| 2026-04-29 15:43 | 46.11449 | 47.38246 | 1996 ft | 170 kts | 51° |
| 2026-04-29 15:43 | 46.12206 | 47.39555 | 1994 ft | 170 kts | 51° |
| 2026-04-29 15:43 | 46.12961 | 47.40864 | 1996 ft | 170 kts | 51° |
| 2026-04-29 15:43 | 46.13719 | 47.42178 | 1995 ft | 171 kts | 51° |
| 2026-04-29 15:44 | 46.14473 | 47.43495 | 1997 ft | 170 kts | 51° |
| 2026-04-29 15:44 | 46.15228 | 47.44806 | 1993 ft | 170 kts | 50° |
| 2026-04-29 15:44 | 46.15990 | 47.46116 | 1994 ft | 171 kts | 51° |
| 2026-04-29 15:44 | 46.16753 | 47.47440 | 1980 ft | 172 kts | 51° |
| 2026-04-29 15:45 | 46.17509 | 47.48757 | 1997 ft | 170 kts | 51° |
| 2026-04-29 15:45 | 46.18268 | 47.50077 | 1992 ft | 171 kts | 51° |
| 2026-04-29 15:45 | 46.19023 | 47.51396 | 1998 ft | 171 kts | 51° |
| 2026-04-29 15:45 | 46.19780 | 47.52716 | 1995 ft | 171 kts | 50° |
| 2026-04-29 15:46 | 46.20539 | 47.54034 | 1997 ft | 170 kts | 51° |
| 2026-04-29 15:46 | 46.21288 | 47.55332 | 1996 ft | 170 kts | 51° |
| 2026-04-29 15:46 | 46.22056 | 47.56668 | 1999 ft | 170 kts | 51° |
| 2026-04-29 15:46 | 46.22798 | 47.57969 | 1993 ft | 166 kts | 51° |
| 2026-04-29 15:47 | 46.23526 | 47.59239 | 1989 ft | 163 kts | 50° |
| 2026-04-29 15:47 | 46.24243 | 47.60487 | 1993 ft | 160 kts | 50° |
| 2026-04-29 15:47 | 46.24942 | 47.61703 | 1994 ft | 158 kts | 50° |
| 2026-04-29 15:47 | 46.25639 | 47.62918 | 1997 ft | 156 kts | 51° |
| 2026-04-29 15:48 | 46.26326 | 47.64122 | 1997 ft | 155 kts | 50° |
| 2026-04-29 15:48 | 46.27004 | 47.65313 | 2003 ft | 153 kts | 50° |
| 2026-04-29 15:48 | 46.27681 | 47.66497 | 1999 ft | 153 kts | 51° |
| 2026-04-29 15:48 | 46.28345 | 47.67690 | 2000 ft | 153 kts | 51° |
| 2026-04-29 15:49 | 46.29014 | 47.68873 | 1995 ft | 150 kts | 50° |
| 2026-04-29 15:49 | 46.29667 | 47.70011 | 1991 ft | 145 kts | 50° |
| 2026-04-29 15:49 | 46.30303 | 47.71107 | 1992 ft | 140 kts | 48° |
| 2026-04-29 15:49 | 46.30911 | 47.72150 | 1997 ft | 135 kts | 69° |
| 2026-04-29 15:50 | 46.30907 | 47.73459 | 1991 ft | 133 kts | 111° |
| 2026-04-29 15:50 | 46.30533 | 47.74662 | 2021 ft | 129 kts | 108° |
| 2026-04-29 15:50 | 46.30282 | 47.75910 | 1981 ft | 126 kts | 101° |
| 2026-04-29 15:50 | 46.30140 | 47.77064 | 1972 ft | 108 kts | 96° |
| 2026-04-29 15:51 | 46.30050 | 47.78085 | 1993 ft | 100 kts | 94° |
| 2026-04-29 15:51 | 46.29978 | 47.79108 | 2022 ft | 105 kts | 93° |
| 2026-04-29 15:51 | 46.29913 | 47.80179 | 2006 ft | 109 kts | 92° |
| 2026-04-29 15:51 | 46.29847 | 47.81280 | 2018 ft | 110 kts | 93° |
| 2026-04-29 15:52 | 46.29779 | 47.82387 | 2021 ft | 111 kts | 92° |
| 2026-04-29 15:52 | 46.29722 | 47.83500 | 2017 ft | 111 kts | 93° |
| 2026-04-29 15:52 | 46.29650 | 47.84615 | 2025 ft | 112 kts | 94° |
| 2026-04-29 15:52 | 46.29566 | 47.85734 | 2014 ft | 113 kts | 95° |
| 2026-04-29 15:53 | 46.29468 | 47.86836 | 1818 ft | 109 kts | 96° |
| 2026-04-29 15:53 | 46.29341 | 47.87941 | 1507 ft | 112 kts | 97° |
| 2026-04-29 15:53 | 46.29245 | 47.89030 | 1259 ft | 106 kts | 95° |
| 2026-04-29 15:53 | 46.29169 | 47.90062 | 1138 ft | 103 kts | 94° |
| 2026-04-29 15:54 | 46.29096 | 47.91104 | 1026 ft | 106 kts | 94° |
| 2026-04-29 15:54 | 46.29017 | 47.92145 | 898 ft | 106 kts | 94° |
| 2026-04-29 15:54 | 46.28941 | 47.93200 | 767 ft | 104 kts | 95° |
| 2026-04-29 15:54 | 46.28854 | 47.94228 | 648 ft | 103 kts | 95° |
| 2026-04-29 15:55 | 46.28780 | 47.95248 | 508 ft | 100 kts | 95° |
| 2026-04-29 15:55 | 46.28707 | 47.96217 | 381 ft | 95 kts | 97° |
| 2026-04-29 15:55 | 46.28617 | 47.97155 | 230 ft | 95 kts | 97° |
| 2026-04-29 15:55 | 46.28535 | 47.98097 | 98 ft | 93 kts | 95° |
| 2026-04-29 15:56 | 46.28459 | 47.99014 | -33 ft | 90 kts | 94° |
| 2026-04-29 15:56 | 46.28394 | 47.99850 | -69 ft | 73 kts | 95° |
| 2026-04-29 15:56 | 46.28343 | 48.00432 | -77 ft | 47 kts | 97° |
| 2026-04-29 15:56 | 46.28312 | 48.00832 | -79 ft | 34 kts | 98° |
| 2026-04-29 15:57 | 46.28293 | 48.01040 | -79 ft | 29 kts | 97° |
| 2026-04-29 15:57 | 46.28272 | 48.01293 | -79 ft | 23 kts | 97° |
| 2026-04-29 15:57 | 46.28249 | 48.01569 | -75 ft | 32 kts | 96° |
| 2026-04-29 15:57 | 46.28220 | 48.01929 | -71 ft | 29 kts | 97° |
| 2026-04-29 15:58 | 46.28200 | 48.02172 | -78 ft | 6 kts | 96° |
| 2026-04-29 15:58 | 46.28239 | 48.02234 | -77 ft | 10 kts | 5° |
| 2026-04-29 15:58 | 46.28304 | 48.02246 | -76 ft | 9 kts | 7° |
| 2026-04-29 15:58 | 46.28366 | 48.02257 | -71 ft | 9 kts | 7° |
| 2026-04-29 15:59 | 46.28398 | 48.02205 | -76 ft | 8 kts | 277° |
| 2026-04-29 15:59 | 46.28405 | 48.02115 | -76 ft | 9 kts | 277° |
| 2026-04-29 15:59 | 46.28413 | 48.02016 | -76 ft | 10 kts | 276° |
| 2026-04-29 15:59 | 46.28422 | 48.01910 | -76 ft | 11 kts | 278° |
| 2026-04-29 16:00 | 46.28431 | 48.01800 | -76 ft | 11 kts | 276° |
| 2026-04-29 16:00 | 46.28441 | 48.01685 | -76 ft | 12 kts | 276° |
| 2026-04-29 16:00 | 46.28450 | 48.01566 | -76 ft | 12 kts | 277° |
| 2026-04-29 16:00 | 46.28465 | 48.01445 | -77 ft | 12 kts | 281° |
| 2026-04-29 16:01 | 46.28481 | 48.01325 | -68 ft | 12 kts | 280° |
| 2026-04-29 16:01 | 46.28502 | 48.01165 | -77 ft | 19 kts | 281° |
| 2026-04-29 16:01 | 46.28525 | 48.00987 | -69 ft | 17 kts | 280° |
| 2026-04-29 16:01 | 46.28545 | 48.00824 | -76 ft | 16 kts | 281° |
| 2026-04-29 16:02 | 46.28565 | 48.00672 | -76 ft | 15 kts | 279° |
| 2026-04-29 16:02 | 46.28578 | 48.00566 | -76 ft | 11 kts | 279° |
| 2026-04-29 16:02 | 46.28586 | 48.00456 | -76 ft | 11 kts | 277° |
| 2026-04-29 16:02 | 46.28596 | 48.00343 | -68 ft | 11 kts | 277° |
| 2026-04-29 16:03 | 46.28604 | 48.00258 | -76 ft | 8 kts | 277° |
| 2026-04-29 16:03 | 46.28611 | 48.00175 | -73 ft | 9 kts | 276° |
| 2026-04-29 16:03 | 46.28608 | 48.00085 | -74 ft | 9 kts | 274° |
| 2026-04-29 16:03 | 46.28616 | 47.99990 | -76 ft | 10 kts | 276° |
| 2026-04-29 16:04 | 46.28624 | 47.99890 | -68 ft | 10 kts | 277° |
| 2026-04-29 16:04 | 46.28624 | 47.99789 | -68 ft | 10 kts | 225° |
| 2026-04-29 16:04 | 46.28558 | 47.99793 | -77 ft | 10 kts | 120° |
| 2026-04-29 16:04 | 46.28573 | 47.99837 | -73 ft | 7 kts | 6° |
| 2026-04-29 16:05 | 46.28593 | 47.99840 | -76 ft | 0 kts | 6° |